Date,TemperatureHighF,TemperatureAvgF,TemperatureLowF,DewpointHighF,DewpointAvgF,DewpointLowF,HumidityHigh,HumidityAvg,HumidityLow,PressureMaxIn,PressureMinIn,WindSpeedMaxMPH,WindSpeedAvgMPH,GustSpeedMaxMPH,PrecipitationSumIn
2013-2-1,42.2,27.7,19.0,35.4,15.7,10.2,88,62,35,30.50,30.17,25,5,25,0.00
2013-2-2,44.4,33.3,25.0,35.3,27.1,15.4,95,78,66,30.37,30.12,18,4,18,0.03
2013-2-3,52.7,40.7,31.9,36.3,30.6,26.6,96,70,38,30.18,30.08,21,5,22,0.01
2013-2-4,51.7,40.6,29.2,37.6,31.9,26.5,92,72,51,30.16,29.95,15,3,15,0.00
2013-2-5,63.4,51.0,42.6,47.9,42.5,37.3,92,74,49,30.04,29.94,13,2,13,0.01
2013-2-6,63.7,50.7,38.7,42.6,38.6,35.7,91,65,39,30.20,30.04,9,2,9,0.00
2013-2-7,59.7,52.4,48.4,49.8,44.3,36.3,93,74,61,30.08,29.91,15,4,15,0.00
2013-2-8,49.5,43.8,34.0,47.6,40.1,30.0,94,87,72,30.29,29.87,21,6,21,0.10
2013-2-9,56.3,42.7,31.1,35.9,31.5,28.2,90,67,38,30.35,30.14,14,4,14,0.00
2013-2-10,56.4,51.0,47.6,54.2,44.2,35.8,94,79,58,30.16,29.87,25,9,25,0.85
2013-2-11,58.2,50.8,42.5,56.1,42.7,31.7,93,75,48,30.16,29.93,14,3,14,0.00
2013-2-12,50.8,45.9,41.2,40.2,35.3,32.0,88,67,50,30.16,29.80,14,3,14,0.05
2013-2-13,44.6,41.3,39.0,41.1,38.5,36.0,95,90,82,30.03,29.69,18,4,18,0.04
2013-2-14,58.6,44.8,33.3,41.8,35.9,32.0,95,74,42,30.09,30.01,15,4,15,0.00
2013-2-15,50.9,43.7,36.4,41.4,34.5,26.3,92,71,52,30.15,30.05,16,4,16,0.00
2013-2-16,38.4,31.8,24.3,26.8,18.4,12.3,82,59,36,30.25,30.13,26,5,26,0.00
2013-2-17,47.3,34.0,20.6,23.1,18.4,13.1,81,55,31,30.33,30.20,17,3,17,0.00
2013-2-18,60.1,47.8,36.5,44.6,33.5,22.6,91,59,45,30.24,29.88,29,10,29,0.29
2013-2-19,48.7,43.3,31.4,45.6,32.0,18.0,94,67,31,30.24,29.89,24,7,24,0.04
2013-2-20,35.9,31.2,24.9,23.4,19.4,15.9,75,62,48,30.33,30.21,14,4,14,0.00
2013-2-21,49.9,40.2,30.6,46.0,29.1,18.7,94,67,37,30.24,29.86,25,6,25,0.73
2013-2-22,57.7,50.8,47.6,50.8,47.6,46.0,94,89,71,30.07,29.89,17,5,17,0.00
2013-2-23,55.2,45.3,35.2,46.6,37.9,30.8,94,77,50,30.00,29.88,12,3,12,0.01
2013-2-24,56.1,42.8,31.6,33.1,29.4,26.7,85,62,33,30.11,29.96,12,4,12,0.00
2013-2-25,59.0,48.7,38.4,45.8,35.1,26.8,90,60,40,29.97,29.50,30,9,30,0.03
2013-2-26,49.8,44.4,38.9,46.9,41.2,35.1,94,88,71,29.76,29.39,32,11,32,0.38
2013-2-27,47.3,40.8,37.9,36.5,34.4,32.6,88,78,64,29.94,29.76,17,6,17,0.00
2013-2-28,39.2,36.0,33.7,35.0,29.6,27.4,89,77,68,30.08,29.90,16,5,16,0.01